Time;durP1;ratioP1;P1;durP2;ratioP2;P2;SDS_P1;SDS_P2;PMS_P1;PMS_P2;Temp;Humidity;BMP_temperature;BMP_pressure;BME280_temperature;BME280_humidity;BME280_pressure;Samples;Min_cycle;Max_cycle;Signal;HPM_P1;HPM_P2
2022/06/18 00:00:32;;;;;;;15.17;13.77;;;20.60;99.90;;;;;;5051451;28;20922;-58
2022/06/18 00:02:59;;;;;;;12.43;11.30;;;20.50;99.90;;;;;;5051456;28;20494;-57
2022/06/18 00:05:35;;;;;;;13.47;12.27;;;20.50;99.90;;;;;;5051667;28;20450;-59
2022/06/18 00:08:04;;;;;;;12.70;11.50;;;20.40;99.90;;;;;;5051473;28;20465;-59
2022/06/18 00:10:32;;;;;;;14.60;11.33;;;20.40;99.90;;;;;;5051143;28;20450;-57
2022/06/18 00:15:58;;;;;;;15.13;13.10;;;20.30;99.90;;;;;;5051427;28;20954;-58
2022/06/18 00:18:25;;;;;;;13.50;12.30;;;20.20;99.90;;;;;;5051237;28;20929;-59
2022/06/18 00:20:54;;;;;;;12.40;11.20;;;20.30;99.90;;;;;;5051003;28;20508;-58
2022/06/18 00:23:22;;;;;;;13.63;12.37;;;20.30;99.90;;;;;;5051162;28;20496;-58
2022/06/18 00:25:52;;;;;;;12.93;11.70;;;20.20;99.90;;;;;;5051182;28;20883;-59
2022/06/18 00:28:22;;;;;;;13.60;11.37;;;20.20;99.90;;;;;;5051179;28;20466;-58
2022/06/18 00:30:50;;;;;;;11.60;10.60;;;20.20;99.90;;;;;;5050571;28;20576;-58
2022/06/18 00:33:17;;;;;;;11.80;10.70;;;20.20;99.90;;;;;;5050979;28;20504;-57
2022/06/18 00:35:45;;;;;;;15.50;12.47;;;20.20;99.90;;;;;;5050811;28;20442;-59
2022/06/18 00:38:18;;;;;;;12.93;11.70;;;20.20;99.90;;;;;;5050907;28;20470;-58
2022/06/18 00:40:46;;;;;;;13.10;11.90;;;20.20;99.90;;;;;;5050511;28;20969;-58
2022/06/18 00:43:17;;;;;;;14.70;11.67;;;20.10;99.90;;;;;;5050916;28;20576;-58
2022/06/18 00:45:44;;;;;;;13.10;11.80;;;20.10;99.90;;;;;;5050399;28;20454;-58
2022/06/18 00:48:18;;;;;;;12.83;11.70;;;20.10;99.90;;;;;;5050453;28;20519;-58
2022/06/18 00:50:50;;;;;;;11.70;10.60;;;20.10;99.90;;;;;;5050775;28;20452;-57
2022/06/18 00:53:24;;;;;;;12.93;11.70;;;20.10;99.90;;;;;;5049865;28;20547;-59
2022/06/18 00:55:55;;;;;;;11.77;10.57;;;20.00;99.90;;;;;;5050235;28;20453;-58
2022/06/18 00:58:29;;;;;;;13.80;12.50;;;20.10;99.90;;;;;;5050470;28;20474;-58
2022/06/18 01:00:57;;;;;;;12.57;11.40;;;20.10;99.90;;;;;;5050511;28;20458;-57
2022/06/18 01:03:27;;;;;;;12.67;11.37;;;20.10;99.90;;;;;;5050448;28;20585;-58
2022/06/18 01:05:56;;;;;;;11.73;10.70;;;20.10;99.90;;;;;;5050552;28;20454;-59
2022/06/18 01:08:29;;;;;;;12.57;11.43;;;20.10;99.90;;;;;;5050184;28;20466;-58
2022/06/18 01:10:59;;;;;;;12.20;10.90;;;19.90;99.90;;;;;;5050029;28;20458;-58
2022/06/18 01:13:30;;;;;;;12.03;10.77;;;19.90;99.90;;;;;;5050073;28;20507;-57
2022/06/18 01:15:58;;;;;;;11.07;9.97;;;19.90;99.90;;;;;;5050275;28;20571;-58
2022/06/18 01:18:25;;;;;;;12.67;11.37;;;20.00;99.90;;;;;;5050329;28;20474;-57
2022/06/18 01:20:54;;;;;;;12.67;11.57;;;19.90;99.90;;;;;;5050183;28;20504;-58
2022/06/18 01:23:33;;;;;;;13.00;11.80;;;19.90;99.90;;;;;;5049732;28;20551;-58
2022/06/18 01:26:02;;;;;;;12.07;10.97;;;19.80;99.90;;;;;;5050113;28;20886;-58
2022/06/18 01:28:29;;;;;;;12.13;10.93;;;19.90;99.90;;;;;;5049791;28;20553;-58
2022/06/18 01:30:56;;;;;;;12.17;10.70;;;19.80;99.90;;;;;;5050191;28;20810;-59
2022/06/18 01:33:24;;;;;;;11.87;10.73;;;19.70;99.90;;;;;;5049911;28;20956;-57
2022/06/18 01:35:54;;;;;;;11.90;10.77;;;19.70;99.90;;;;;;5049828;28;20454;-58
2022/06/18 01:38:24;;;;;;;11.40;10.20;;;19.60;99.90;;;;;;5049539;28;20496;-57
2022/06/18 01:40:55;;;;;;;12.00;10.90;;;19.60;99.90;;;;;;5049819;28;20450;-58
2022/06/18 01:43:25;;;;;;;11.80;10.60;;;19.60;99.90;;;;;;5049982;28;20578;-58
2022/06/18 01:45:57;;;;;;;12.37;11.07;;;19.80;99.90;;;;;;5049854;28;20450;-57
2022/06/18 01:48:28;;;;;;;12.03;10.73;;;19.70;99.90;;;;;;5049570;28;20561;-59
2022/06/18 01:50:59;;;;;;;10.50;9.47;;;19.70;99.90;;;;;;5049774;28;20515;-58
2022/06/18 01:53:31;;;;;;;11.47;10.37;;;19.60;99.90;;;;;;5049500;28;20899;-58
2022/06/18 01:56:02;;;;;;;11.47;10.27;;;19.60;99.90;;;;;;5049709;28;20507;-57
2022/06/18 01:58:37;;;;;;;11.90;10.40;;;19.70;99.90;;;;;;5049645;28;20489;-58
2022/06/18 02:01:07;;;;;;;12.60;10.73;;;19.60;99.90;;;;;;5049364;28;20911;-59
2022/06/18 02:03:36;;;;;;;10.27;9.17;;;19.70;99.90;;;;;;5049544;28;20490;-57
2022/06/18 02:06:04;;;;;;;11.67;10.27;;;19.70;99.90;;;;;;5049271;28;20548;-57
2022/06/18 02:08:31;;;;;;;10.87;9.47;;;19.60;99.90;;;;;;5049672;28;20453;-57
2022/06/18 02:11:02;;;;;;;11.00;10.00;;;19.60;99.90;;;;;;5049616;28;20461;-58
2022/06/18 02:13:35;;;;;;;11.33;10.13;;;19.50;99.90;;;;;;5049227;28;20450;-57
2022/06/18 02:16:08;;;;;;;11.70;10.57;;;19.60;99.90;;;;;;5049548;28;20507;-58
2022/06/18 02:18:35;;;;;;;11.50;10.13;;;19.50;99.90;;;;;;5049558;28;20449;-58
2022/06/18 02:21:08;;;;;;;9.90;8.90;;;19.50;99.90;;;;;;5049299;28;20450;-58
2022/06/18 02:23:35;;;;;;;10.43;9.27;;;19.50;99.90;;;;;;5049330;28;20838;-58
2022/06/18 02:26:06;;;;;;;10.47;9.00;;;19.50;99.90;;;;;;5049249;28;20940;-58
2022/06/18 02:28:39;;;;;;;10.30;9.20;;;19.50;99.90;;;;;;5048981;28;20466;-58
2022/06/18 02:31:07;;;;;;;10.23;9.23;;;19.50;99.90;;;;;;5049439;28;20450;-58
2022/06/18 02:33:39;;;;;;;11.10;10.00;;;19.40;99.90;;;;;;5049518;28;20476;-58
2022/06/18 02:36:13;;;;;;;10.50;9.40;;;19.30;99.90;;;;;;5049233;28;20457;-57
2022/06/18 02:38:40;;;;;;;12.80;9.90;;;19.40;99.90;;;;;;5049070;28;20934;-58
2022/06/18 02:41:09;;;;;;;11.77;9.83;;;19.30;99.90;;;;;;5049233;28;20454;-57
2022/06/18 02:43:38;;;;;;;11.13;10.03;;;19.30;99.90;;;;;;5049337;28;21367;-58
2022/06/18 02:46:05;;;;;;;11.47;10.00;;;19.30;99.90;;;;;;5049225;28;20516;-58
2022/06/18 02:48:34;;;;;;;10.27;9.17;;;19.40;99.90;;;;;;5049498;28;20507;-57
2022/06/18 02:51:02;;;;;;;11.10;9.90;;;19.40;99.90;;;;;;5049054;28;20575;-57
2022/06/18 02:53:32;;;;;;;11.07;9.60;;;19.30;99.90;;;;;;5048687;28;20481;-57
2022/06/18 02:56:03;;;;;;;11.53;9.73;;;19.30;99.90;;;;;;5049165;28;20544;-57
2022/06/18 02:58:33;;;;;;;10.33;9.30;;;19.40;99.90;;;;;;5049046;28;20802;-58
2022/06/18 03:01:06;;;;;;;11.00;9.90;;;19.40;99.90;;;;;;5049145;28;20454;-57
2022/06/18 03:03:36;;;;;;;11.07;8.27;;;19.40;99.90;;;;;;5048993;28;20893;-58
2022/06/18 03:06:04;;;;;;;9.77;8.83;;;19.30;99.90;;;;;;5048998;28;20457;-58
2022/06/18 03:08:32;;;;;;;11.27;9.57;;;19.40;99.90;;;;;;5049111;28;20457;-58
2022/06/18 03:13:45;;;;;;;9.70;8.70;;;19.40;99.90;;;;;;5048642;28;20433;-57
2022/06/18 03:16:17;;;;;;;10.17;9.10;;;19.40;99.90;;;;;;5048882;28;20453;-58
2022/06/18 03:18:46;;;;;;;10.23;9.13;;;19.40;99.90;;;;;;5051461;28;20458;-57
2022/06/18 03:21:19;;;;;;;9.07;8.17;;;19.40;99.90;;;;;;5052429;28;20446;-58
2022/06/18 03:23:47;;;;;;;8.90;7.90;;;19.30;99.90;;;;;;5052500;28;20551;-58
2022/06/18 03:26:16;;;;;;;10.77;9.60;;;19.30;99.90;;;;;;5052498;28;20453;-59
2022/06/18 03:28:43;;;;;;;10.70;9.60;;;19.40;99.90;;;;;;5052171;28;20449;-60
2022/06/18 03:31:10;;;;;;;9.40;8.50;;;19.40;99.90;;;;;;5052405;28;20531;-58
2022/06/18 03:33:41;;;;;;;10.43;9.20;;;19.50;99.90;;;;;;5052315;28;20996;-59
2022/06/18 03:36:10;;;;;;;10.13;8.00;;;19.40;99.90;;;;;;5052193;28;20988;-58
2022/06/18 03:38:37;;;;;;;10.03;9.00;;;19.50;99.90;;;;;;5051776;28;20454;-57
2022/06/18 03:41:04;;;;;;;10.63;8.40;;;19.40;99.90;;;;;;5052141;28;20907;-57
2022/06/18 03:43:31;;;;;;;9.20;8.30;;;19.50;99.90;;;;;;5051886;28;20489;-57
2022/06/18 03:46:01;;;;;;;9.40;7.50;;;19.50;99.90;;;;;;5051984;28;20446;-57
2022/06/18 03:48:31;;;;;;;10.20;8.63;;;19.60;99.90;;;;;;5051927;28;20473;-57
2022/06/18 03:50:59;;;;;;;9.47;8.00;;;19.70;99.90;;;;;;5051993;28;20454;-58
2022/06/18 03:53:27;;;;;;;11.57;8.23;;;19.80;99.90;;;;;;5051471;28;20485;-57
2022/06/18 03:55:54;;;;;;;10.00;9.10;;;19.80;99.90;;;;;;5052011;28;20903;-58
2022/06/18 03:58:21;;;;;;;9.60;8.40;;;19.80;99.90;;;;;;5051555;28;21000;-58
2022/06/18 04:00:50;;;;;;;9.93;8.10;;;19.80;99.90;;;;;;5051884;28;20452;-58
2022/06/18 04:03:16;;;;;;;9.87;8.87;;;19.80;99.90;;;;;;5051685;28;20994;-58
2022/06/18 04:05:44;;;;;;;11.07;8.40;;;19.80;99.90;;;;;;5051864;28;20783;-58
2022/06/18 04:08:13;;;;;;;9.77;8.27;;;19.70;99.90;;;;;;5051505;28;20458;-58
2022/06/18 04:10:41;;;;;;;10.30;8.10;;;19.70;99.90;;;;;;5051559;28;20458;-57
2022/06/18 04:13:08;;;;;;;10.67;8.53;;;19.60;99.90;;;;;;5051506;28;20504;-57
2022/06/18 04:15:36;;;;;;;10.27;8.57;;;19.50;99.90;;;;;;5051483;28;20454;-57
2022/06/18 04:18:03;;;;;;;9.00;7.90;;;19.70;99.90;;;;;;5050920;28;20474;-58
2022/06/18 04:20:33;;;;;;;9.07;7.50;;;19.80;99.90;;;;;;5051196;28;20457;-58
2022/06/18 04:23:01;;;;;;;10.10;7.80;;;19.80;99.90;;;;;;5051133;28;20481;-58
2022/06/18 04:25:30;;;;;;;8.60;7.80;;;19.80;99.90;;;;;;5051060;28;20453;-59
2022/06/18 04:27:58;;;;;;;10.73;8.17;;;19.90;99.90;;;;;;5050580;28;20505;-58
2022/06/18 04:30:26;;;;;;;8.47;7.40;;;20.00;99.90;;;;;;5050763;28;20469;-58
2022/06/18 04:32:53;;;;;;;8.80;7.10;;;20.00;99.90;;;;;;5051044;28;20441;-59
2022/06/18 04:35:21;;;;;;;8.50;7.53;;;20.00;99.90;;;;;;5050963;28;20450;-58
2022/06/18 04:37:48;;;;;;;8.67;7.33;;;20.00;99.90;;;;;;5050788;28;20535;-59
2022/06/18 04:40:17;;;;;;;10.27;8.27;;;20.00;99.90;;;;;;5050968;28;20454;-57
2022/06/18 04:42:46;;;;;;;12.90;7.60;;;20.00;99.90;;;;;;5050788;28;20458;-59
2022/06/18 04:45:13;;;;;;;10.10;7.33;;;20.20;99.90;;;;;;5050945;28;20974;-59
2022/06/18 04:47:41;;;;;;;8.47;6.63;;;20.20;99.90;;;;;;5050698;28;20531;-59
2022/06/18 04:50:15;;;;;;;8.37;7.10;;;20.30;99.90;;;;;;5050538;28;20809;-59
2022/06/18 04:52:42;;;;;;;7.93;7.13;;;20.20;99.90;;;;;;5050193;28;20487;-57
2022/06/18 04:55:10;;;;;;;12.90;7.07;;;20.10;99.90;;;;;;5050790;28;20446;-58
2022/06/18 04:57:37;;;;;;;7.17;6.47;;;20.10;99.90;;;;;;5050706;28;21087;-58
2022/06/18 05:00:07;;;;;;;7.77;6.97;;;20.10;99.90;;;;;;5050616;28;20454;-58
2022/06/18 05:02:36;;;;;;;9.23;6.83;;;20.30;99.90;;;;;;5050325;28;20496;-58
2022/06/18 05:05:04;;;;;;;8.33;7.43;;;20.30;99.90;;;;;;5050446;28;20490;-57
2022/06/18 05:07:31;;;;;;;9.33;6.37;;;20.40;99.90;;;;;;5050419;28;20469;-58
2022/06/18 05:09:58;;;;;;;8.53;7.00;;;20.60;99.90;;;;;;5050362;28;20899;-58
2022/06/18 05:12:25;;;;;;;8.70;6.27;;;20.60;99.90;;;;;;5050377;28;20499;-59
2022/06/18 05:14:52;;;;;;;10.30;6.73;;;20.70;99.90;;;;;;5050283;28;20446;-58
2022/06/18 05:17:23;;;;;;;10.70;6.73;;;20.70;99.90;;;;;;5050173;28;20478;-59
2022/06/18 05:19:51;;;;;;;9.03;6.83;;;20.70;99.90;;;;;;5050272;28;20477;-59
2022/06/18 05:22:18;;;;;;;7.57;5.83;;;20.80;99.90;;;;;;5050196;28;20934;-59
2022/06/18 05:24:45;;;;;;;7.47;6.47;;;21.00;99.90;;;;;;5050028;28;20531;-57
2022/06/18 05:27:20;;;;;;;8.47;6.13;;;21.00;99.90;;;;;;5049880;28;20473;-58
2022/06/18 05:29:47;;;;;;;9.70;6.87;;;21.20;99.90;;;;;;5050036;28;20595;-58
2022/06/18 05:32:14;;;;;;;8.77;7.27;;;21.30;99.90;;;;;;5049953;28;20512;-58
2022/06/18 05:34:43;;;;;;;11.07;6.43;;;21.20;99.90;;;;;;5049852;28;20484;-56
2022/06/18 05:37:14;;;;;;;7.93;6.20;;;21.20;99.90;;;;;;5049843;28;20498;-57
2022/06/18 05:39:41;;;;;;;8.07;6.20;;;21.20;99.90;;;;;;5049532;28;20458;-57
2022/06/18 05:42:08;;;;;;;8.73;6.70;;;21.10;99.90;;;;;;5049492;28;20522;-57
2022/06/18 05:44:36;;;;;;;9.37;5.57;;;21.20;99.90;;;;;;5049593;28;20497;-59
2022/06/18 05:47:03;;;;;;;8.70;6.90;;;21.30;99.90;;;;;;5049788;28;20474;-58
2022/06/18 05:49:30;;;;;;;8.77;6.80;;;21.40;99.90;;;;;;5049736;28;20458;-57
2022/06/18 05:51:59;;;;;;;10.93;6.07;;;21.40;99.90;;;;;;5049749;28;20450;-57
2022/06/18 05:54:26;;;;;;;7.90;7.10;;;21.50;99.90;;;;;;5049351;28;20579;-57
2022/06/18 05:56:53;;;;;;;8.97;6.00;;;21.50;99.90;;;;;;5049557;28;20838;-57
2022/06/18 05:59:20;;;;;;;11.10;6.90;;;21.60;99.90;;;;;;5049612;28;20881;-57
2022/06/18 06:01:47;;;;;;;7.37;6.23;;;21.60;99.90;;;;;;5049875;28;20876;-58
2022/06/18 06:04:16;;;;;;;9.87;6.40;;;22.00;99.90;;;;;;5049639;28;20943;-59
2022/06/18 06:06:43;;;;;;;8.90;6.80;;;22.30;99.90;;;;;;5049579;28;20607;-58
2022/06/18 06:11:28;;;;;;;8.50;7.00;;;22.50;99.90;;;;;;5049421;28;20472;-58
2022/06/18 06:11:59;;;;;;;8.00;6.53;;;22.60;99.90;;;;;;5049443;28;20876;-57
2022/06/18 06:14:26;;;;;;;7.30;5.97;;;22.60;99.90;;;;;;5049606;28;20445;-58
2022/06/18 06:16:53;;;;;;;7.60;6.90;;;22.50;99.90;;;;;;5049450;28;20470;-59
2022/06/18 06:19:20;;;;;;;15.20;6.63;;;22.50;99.90;;;;;;5049445;28;20453;-62
2022/06/18 06:21:47;;;;;;;8.17;5.40;;;22.60;99.90;;;;;;5049120;28;20495;-59
2022/06/18 06:24:16;;;;;;;7.10;6.20;;;22.70;99.90;;;;;;5049060;28;20486;-63
2022/06/18 06:26:43;;;;;;;7.47;5.97;;;22.60;99.90;;;;;;5049381;28;20563;-59
2022/06/18 06:29:10;;;;;;;8.80;6.27;;;22.70;99.90;;;;;;5049512;28;20465;-59
2022/06/18 06:31:37;;;;;;;7.73;6.30;;;22.80;99.90;;;;;;5049428;28;20484;-59
2022/06/18 06:34:04;;;;;;;6.93;5.77;;;22.90;99.90;;;;;;5049333;28;20454;-59
2022/06/18 06:36:31;;;;;;;6.30;5.10;;;23.10;99.90;;;;;;5048969;28;20474;-63
2022/06/18 06:38:58;;;;;;;7.17;6.47;;;23.30;99.90;;;;;;5049118;28;20476;-63
2022/06/18 06:41:28;;;;;;;9.27;5.50;;;23.60;99.90;;;;;;5049154;28;21000;-62
2022/06/18 06:43:55;;;;;;;7.97;5.70;;;23.80;99.90;;;;;;5049215;28;20563;-61
2022/06/18 06:46:22;;;;;;;7.33;6.10;;;24.10;99.90;;;;;;5048997;28;20453;-60
2022/06/18 06:48:50;;;;;;;8.27;6.43;;;24.20;99.90;;;;;;5048953;28;20458;-61
2022/06/18 06:51:20;;;;;;;8.70;5.53;;;24.30;99.90;;;;;;5048655;28;20887;-63
2022/06/18 06:53:48;;;;;;;7.23;5.30;;;24.40;99.90;;;;;;5051683;28;20543;-63
2022/06/18 06:59:05;;;;;;;10.30;6.33;;;24.70;99.90;;;;;;5052660;28;20454;-61
2022/06/18 07:01:34;;;;;;;6.43;5.73;;;24.90;99.90;;;;;;5052817;28;20957;-62
2022/06/18 07:04:01;;;;;;;6.83;6.10;;;25.00;99.90;;;;;;5052346;28;20489;-62
2022/06/18 07:06:29;;;;;;;7.70;5.60;;;25.00;99.90;;;;;;5052227;28;20466;-60
2022/06/18 07:08:56;;;;;;;7.90;5.27;;;25.20;99.90;;;;;;5052723;28;20549;-61
2022/06/18 07:11:23;;;;;;;7.83;5.63;;;25.30;99.90;;;;;;5052285;28;20880;-63
2022/06/18 07:13:50;;;;;;;6.60;5.27;;;25.40;99.90;;;;;;5052297;28;20953;-61
2022/06/18 07:16:19;;;;;;;7.00;5.47;;;25.40;99.90;;;;;;5052464;28;20504;-61
2022/06/18 07:18:46;;;;;;;8.60;5.90;;;25.50;99.90;;;;;;5052671;28;21282;-61
2022/06/18 07:21:15;;;;;;;7.27;5.33;;;25.70;99.90;;;;;;5052962;28;20848;-61
2022/06/18 07:23:42;;;;;;;7.07;5.70;;;26.00;99.90;;;;;;5052486;28;20512;-63
2022/06/18 07:26:13;;;;;;;7.27;5.53;;;26.30;99.90;;;;;;5052040;28;20503;-61
2022/06/18 07:28:40;;;;;;;6.10;5.20;;;26.50;99.90;;;;;;5052462;28;20560;-64
2022/06/18 07:31:07;;;;;;;7.30;5.77;;;26.60;99.90;;;;;;5052600;28;20504;-62
2022/06/18 07:33:36;;;;;;;6.83;4.73;;;26.60;99.90;;;;;;5052097;28;20450;-61
2022/06/18 07:36:03;;;;;;;6.80;5.67;;;26.60;99.90;;;;;;5052351;28;21013;-64
2022/06/18 07:38:30;;;;;;;9.53;5.70;;;26.60;99.90;;;;;;5052055;28;20982;-61
2022/06/18 07:40:57;;;;;;;10.33;5.63;;;26.20;99.90;;;;;;5052155;28;20457;-60
2022/06/18 07:43:31;;;;;;;7.23;6.10;;;26.20;99.90;;;;;;5051908;28;20458;-60
2022/06/18 07:45:58;;;;;;;9.23;6.67;;;26.10;99.90;;;;;;5051948;28;20490;-59
2022/06/18 07:48:25;;;;;;;9.40;5.27;;;26.50;99.90;;;;;;5051739;28;20618;-58
2022/06/18 07:50:54;;;;;;;9.37;5.53;;;26.70;99.90;;;;;;5052082;28;20461;-60
2022/06/18 07:53:24;;;;;;;7.00;5.30;;;26.80;99.90;;;;;;5051436;28;20489;-60
2022/06/18 07:55:51;;;;;;;7.57;5.47;;;26.70;99.90;;;;;;5051732;28;20520;-60
2022/06/18 07:58:19;;;;;;;6.70;4.90;;;26.80;98.90;;;;;;5051806;28;20469;-57
2022/06/18 08:00:47;;;;;;;6.83;5.10;;;27.00;98.50;;;;;;5051641;28;20449;-58
2022/06/18 08:03:16;;;;;;;6.00;5.00;;;27.10;98.40;;;;;;5051318;28;20532;-58
2022/06/18 08:05:44;;;;;;;7.63;5.37;;;27.20;99.00;;;;;;5051383;28;20490;-57
2022/06/18 08:08:13;;;;;;;7.27;5.00;;;27.30;97.20;;;;;;5051325;28;20484;-58
2022/06/18 08:10:41;;;;;;;5.90;4.40;;;27.30;97.40;;;;;;5051292;28;20462;-62
2022/06/18 08:13:09;;;;;;;5.57;4.93;;;27.50;97.20;;;;;;5051557;28;20468;-59
2022/06/18 08:15:36;;;;;;;6.00;4.30;;;27.50;96.60;;;;;;5051692;28;20984;-66
2022/06/18 08:18:03;;;;;;;7.30;4.37;;;27.20;96.40;;;;;;5051330;28;21389;-58
2022/06/18 08:20:32;;;;;;;5.03;3.77;;;27.40;96.10;;;;;;5051051;28;20457;-59
2022/06/18 08:23:01;;;;;;;5.80;4.50;;;27.60;96.60;;;;;;5051314;28;20453;-58
2022/06/18 08:25:32;;;;;;;5.57;4.70;;;27.50;95.40;;;;;;5051178;28;20580;-58
2022/06/18 08:28:02;;;;;;;6.30;5.20;;;27.40;95.60;;;;;;5050886;28;20482;-60
2022/06/18 08:30:30;;;;;;;6.33;4.83;;;27.40;96.60;;;;;;5051262;28;20458;-62
2022/06/18 08:32:57;;;;;;;7.50;5.37;;;27.50;96.80;;;;;;5051132;28;20450;-64
2022/06/18 08:35:24;;;;;;;6.03;4.30;;;27.60;97.30;;;;;;5050961;28;20461;-62
2022/06/18 08:37:52;;;;;;;7.17;5.10;;;27.60;98.00;;;;;;5050765;28;20833;-65
2022/06/18 08:40:36;;;;;;;5.63;4.70;;;27.50;96.50;;;;;;5050873;28;20509;-65
2022/06/18 08:43:14;;;;;;;8.53;4.60;;;27.30;96.30;;;;;;5051131;28;20461;-66
2022/06/18 08:45:46;;;;;;;12.63;5.30;;;27.00;96.10;;;;;;5050883;28;20590;-66
2022/06/18 08:48:31;;;;;;;5.90;4.37;;;27.00;96.30;;;;;;5050690;28;20520;-59
2022/06/18 08:51:11;;;;;;;6.57;4.80;;;27.00;96.20;;;;;;5050952;28;20903;-63
2022/06/18 08:54:05;;;;;;;5.73;4.70;;;26.90;96.60;;;;;;5050719;28;20501;-65
2022/06/18 08:56:40;;;;;;;7.57;4.93;;;26.90;97.30;;;;;;5048629;28;20544;-65
2022/06/18 08:59:18;;;;;;;5.73;4.63;;;26.90;97.90;;;;;;5050892;28;21313;-65
2022/06/18 09:01:50;;;;;;;9.80;5.40;;;27.00;98.30;;;;;;5050733;28;20454;-65
2022/06/18 09:04:26;;;;;;;5.80;5.20;;;27.10;98.00;;;;;;5050191;28;20922;-60
2022/06/18 09:07:17;;;;;;;7.83;4.77;;;27.10;98.10;;;;;;5050483;28;20476;-61
2022/06/18 09:09:49;;;;;;;7.47;5.03;;;27.30;97.80;;;;;;5050445;28;20465;-63
2022/06/18 09:12:21;;;;;;;6.83;4.70;;;27.70;97.50;;;;;;5050574;28;20936;-62
2022/06/18 09:14:52;;;;;;;6.03;4.60;;;27.90;96.90;;;;;;5049552;28;20496;-64
2022/06/18 09:17:23;;;;;;;7.50;5.20;;;28.00;96.90;;;;;;5050162;28;20511;-65
2022/06/18 09:19:58;;;;;;;6.47;5.40;;;28.10;96.60;;;;;;5050256;28;20458;-66
2022/06/18 09:22:27;;;;;;;6.43;4.90;;;28.00;97.40;;;;;;5050457;28;20461;-63
2022/06/18 09:25:02;;;;;;;6.50;5.30;;;27.90;96.70;;;;;;5050034;28;20489;-63
2022/06/18 09:27:37;;;;;;;6.63;5.33;;;27.70;97.20;;;;;;5049879;28;20946;-60
2022/06/18 09:30:09;;;;;;;7.00;5.70;;;27.40;97.60;;;;;;5050422;28;20458;-59
2022/06/18 09:32:43;;;;;;;6.63;4.90;;;27.30;98.20;;;;;;5050346;28;20844;-62
2022/06/18 09:35:15;;;;;;;8.47;5.00;;;27.20;99.10;;;;;;5049490;28;20503;-61
2022/06/18 09:37:49;;;;;;;6.93;4.90;;;27.10;99.80;;;;;;5049690;28;20476;-61
2022/06/18 09:40:20;;;;;;;7.00;5.30;;;27.00;99.90;;;;;;5049780;28;20449;-61
2022/06/18 09:42:55;;;;;;;6.77;4.83;;;27.00;99.90;;;;;;5049861;28;21057;-59
2022/06/18 09:45:27;;;;;;;6.50;5.90;;;26.90;99.90;;;;;;5049358;28;20493;-60
2022/06/18 09:47:54;;;;;;;7.50;5.40;;;26.90;99.90;;;;;;5049400;28;20474;-61
2022/06/18 09:50:26;;;;;;;7.23;5.00;;;26.90;99.90;;;;;;5049503;28;20462;-62
2022/06/18 09:53:01;;;;;;;6.23;5.30;;;27.00;99.90;;;;;;5049186;28;20508;-61
2022/06/18 09:55:36;;;;;;;6.53;4.70;;;27.00;99.90;;;;;;5049714;28;20872;-61
2022/06/18 09:58:09;;;;;;;7.37;5.47;;;27.00;99.90;;;;;;5049713;28;20520;-68
2022/06/18 10:00:36;;;;;;;6.73;5.40;;;27.10;99.90;;;;;;5049593;28;20463;-71
2022/06/18 10:03:08;;;;;;;5.70;4.60;;;27.20;99.90;;;;;;5049524;28;20461;-63
2022/06/18 10:08:32;;;;;;;6.83;5.97;;;27.30;97.30;;;;;;5049255;28;20606;-61
2022/06/18 10:11:08;;;;;;;7.07;5.27;;;27.60;96.20;;;;;;5049499;28;20531;-61
2022/06/18 10:13:42;;;;;;;6.23;5.30;;;27.70;96.40;;;;;;5041176;28;20453;-63
2022/06/18 10:16:19;;;;;;;7.30;5.20;;;27.90;97.00;;;;;;5049282;28;20446;-59
2022/06/18 10:18:56;;;;;;;7.33;4.63;;;28.30;97.90;;;;;;5049574;28;20484;-61
2022/06/18 10:21:32;;;;;;;8.70;6.03;;;28.60;96.10;;;;;;5049335;28;20511;-60
2022/06/18 10:24:07;;;;;;;5.80;4.90;;;28.90;95.20;;;;;;5049266;28;20453;-61
2022/06/18 10:26:43;;;;;;;5.73;5.00;;;29.30;95.20;;;;;;5049858;28;20484;-62
2022/06/18 10:29:20;;;;;;;6.00;5.07;;;29.70;93.70;;;;;;5053487;28;20502;-62
2022/06/18 10:32:00;;;;;;;8.33;5.20;;;29.90;93.50;;;;;;5053203;28;20449;-62
2022/06/18 10:34:47;;;;;;;7.20;5.53;;;30.20;93.50;;;;;;5053031;28;20437;-60
2022/06/18 10:37:24;;;;;;;6.70;5.23;;;30.20;91.50;;;;;;5053231;28;20473;-61
2022/06/18 10:40:05;;;;;;;6.70;5.30;;;30.40;92.30;;;;;;5053359;28;20453;-62
2022/06/18 10:42:50;;;;;;;6.10;4.80;;;30.30;92.40;;;;;;5052822;28;21011;-62
2022/06/18 10:45:24;;;;;;;6.73;5.40;;;29.70;92.70;;;;;;5053019;28;20490;-63
2022/06/18 10:47:54;;;;;;;7.53;5.10;;;29.40;93.50;;;;;;5053153;28;20530;-63
2022/06/18 10:50:23;;;;;;;9.40;5.83;;;29.30;93.60;;;;;;5053169;28;20464;-62
2022/06/18 10:52:59;;;;;;;7.43;5.47;;;29.00;93.80;;;;;;5052662;28;20600;-61
2022/06/18 10:55:26;;;;;;;7.77;5.07;;;28.70;93.30;;;;;;5052660;28;20446;-61
2022/06/18 10:57:53;;;;;;;6.83;5.60;;;28.50;93.50;;;;;;5052734;28;20470;-63
2022/06/18 11:00:24;;;;;;;7.00;6.03;;;28.30;94.40;;;;;;5052931;28;20450;-60
2022/06/18 11:02:54;;;;;;;7.50;5.37;;;28.10;93.90;;;;;;5052838;28;20950;-60
2022/06/18 11:05:26;;;;;;;6.73;5.83;;;27.90;94.70;;;;;;5052563;28;20489;-63
2022/06/18 11:07:54;;;;;;;8.47;5.77;;;27.80;95.60;;;;;;5052360;28;20477;-61
2022/06/18 11:10:27;;;;;;;6.90;5.50;;;27.70;95.40;;;;;;5052200;28;20548;-60
2022/06/18 11:12:57;;;;;;;7.23;6.00;;;27.20;96.90;;;;;;5052553;28;20458;-62
2022/06/18 11:15:29;;;;;;;7.37;6.07;;;26.80;98.40;;;;;;5052464;28;20453;-63
2022/06/18 11:17:56;;;;;;;6.03;5.37;;;26.60;97.20;;;;;;5052881;28;20842;-59
2022/06/18 11:20:25;;;;;;;8.13;5.37;;;26.30;97.80;;;;;;5052619;28;20558;-59
2022/06/18 11:22:54;;;;;;;7.50;5.00;;;26.20;98.40;;;;;;5052159;28;20485;-60
2022/06/18 11:25:29;;;;;;;5.77;5.00;;;26.20;98.40;;;;;;5050722;28;20701;-59
2022/06/18 11:28:00;;;;;;;7.30;5.20;;;26.10;97.40;;;;;;5050757;28;20888;-61
2022/06/18 11:30:34;;;;;;;8.53;5.73;;;26.20;97.90;;;;;;5052223;28;20450;-60
2022/06/18 11:33:03;;;;;;;6.00;4.90;;;26.40;97.60;;;;;;5052149;28;20937;-61
2022/06/18 11:35:37;;;;;;;6.13;4.57;;;26.80;97.40;;;;;;5052356;28;20453;-62
2022/06/18 11:38:06;;;;;;;7.30;4.77;;;27.30;96.70;;;;;;5050492;28;20473;-59
2022/06/18 11:40:33;;;;;;;5.83;4.63;;;27.80;96.20;;;;;;5051700;28;20453;-61
2022/06/18 11:43:06;;;;;;;6.77;4.57;;;28.30;95.40;;;;;;5051532;28;20450;-59
2022/06/18 11:45:46;;;;;;;9.70;5.47;;;28.50;94.50;;;;;;5051830;28;20485;-59
2022/06/18 11:48:27;;;;;;;6.70;5.07;;;28.60;96.40;;;;;;5051727;28;20473;-59
2022/06/18 11:50:57;;;;;;;6.87;5.37;;;27.90;97.00;;;;;;5051680;28;20541;-61
2022/06/18 11:53:31;;;;;;;8.40;4.93;;;27.10;96.70;;;;;;5051116;28;20962;-61
2022/06/18 11:56:00;;;;;;;7.80;5.30;;;26.30;97.50;;;;;;5051773;28;20473;-61
2022/06/18 11:58:36;;;;;;;8.00;5.17;;;26.30;98.20;;;;;;5051579;28;20470;-63
2022/06/18 12:01:12;;;;;;;6.17;5.00;;;26.10;98.40;;;;;;5051552;28;20946;-62
2022/06/18 12:03:44;;;;;;;6.97;4.63;;;25.90;98.60;;;;;;5051526;28;20454;-58
2022/06/18 12:06:16;;;;;;;5.17;4.20;;;26.00;99.90;;;;;;5051246;28;20486;-60
2022/06/18 12:08:44;;;;;;;6.37;5.23;;;26.30;99.70;;;;;;5051439;28;20941;-61
2022/06/18 12:11:33;;;;;;;6.63;4.97;;;26.60;98.60;;;;;;5051471;28;20861;-61
2022/06/18 12:14:06;;;;;;;6.13;5.03;;;26.50;97.90;;;;;;5051107;28;20472;-60
2022/06/18 12:16:42;;;;;;;6.90;5.17;;;26.10;99.10;;;;;;5051045;28;20517;-62
2022/06/18 12:19:23;;;;;;;10.90;4.93;;;26.30;99.50;;;;;;5051487;28;20461;-61
2022/06/18 12:21:53;;;;;;;7.80;5.07;;;26.70;98.90;;;;;;5050725;28;20454;-63
2022/06/18 12:24:30;;;;;;;7.00;5.37;;;27.10;98.70;;;;;;5050903;28;20867;-67
2022/06/18 12:27:03;;;;;;;6.17;4.90;;;27.30;98.30;;;;;;5039201;28;21056;-60
2022/06/18 12:29:57;;;;;;;5.93;4.80;;;27.30;98.00;;;;;;5030941;28;20570;-60
2022/06/18 12:32:38;;;;;;;5.87;4.53;;;27.00;96.70;;;;;;5028652;28;20486;-63
2022/06/18 12:35:14;;;;;;;6.43;5.33;;;26.80;99.70;;;;;;5030774;28;20875;-63
2022/06/18 12:37:51;;;;;;;6.93;5.17;;;26.90;99.90;;;;;;5031304;28;20474;-61
2022/06/18 12:40:25;;;;;;;6.40;5.13;;;27.00;99.90;;;;;;5030416;28;20462;-60
2022/06/18 12:42:55;;;;;;;6.67;4.63;;;27.30;99.90;;;;;;5030970;28;20576;-60
2022/06/18 12:45:41;;;;;;;6.90;4.50;;;27.90;99.20;;;;;;5030521;28;20828;-61
2022/06/18 12:48:16;;;;;;;5.80;4.23;;;28.40;99.50;;;;;;5030721;28;20487;-63
2022/06/18 12:50:53;;;;;;;5.30;4.00;;;29.00;95.60;;;;;;5030931;28;20501;-60
2022/06/18 12:53:37;;;;;;;5.70;3.20;;;29.50;92.10;;;;;;5030093;28;21006;-62
2022/06/18 12:56:13;;;;;;;7.63;3.90;;;29.40;90.10;;;;;;5030154;28;20931;-62
2022/06/18 12:58:48;;;;;;;6.23;3.23;;;29.10;90.50;;;;;;5030561;28;20450;-63
2022/06/18 13:01:21;;;;;;;6.20;3.20;;;29.00;89.50;;;;;;5030637;28;20457;-60
2022/06/18 13:04:05;;;;;;;5.07;3.20;;;28.90;89.60;;;;;;5030374;28;20459;-62
2022/06/18 13:06:43;;;;;;;5.00;3.40;;;29.00;88.20;;;;;;5030164;28;20548;-66
2022/06/18 13:09:20;;;;;;;4.50;3.20;;;29.30;87.50;;;;;;5030472;28;20454;-67